createdAt,value
2019-02-08T00:02:10.028Z,39.50
2019-02-08T00:04:38.414Z,45.87
2019-02-08T00:07:06.960Z,50.37
2019-02-08T00:09:35.355Z,51.53
2019-02-08T00:12:03.730Z,59.30
2019-02-08T00:14:32.256Z,57.17
2019-02-08T00:17:00.588Z,64.63
2019-02-08T00:19:28.995Z,54.53
2019-02-08T00:21:57.680Z,58.47
2019-02-08T00:24:26.208Z,63.30
2019-02-08T00:26:54.594Z,61.67
2019-02-08T00:29:23.264Z,50.40
2019-02-08T00:31:51.717Z,57.70
2019-02-08T00:34:20.111Z,51.73
2019-02-08T00:36:48.895Z,67.40
2019-02-08T00:39:17.352Z,55.90
2019-02-08T00:41:45.713Z,60.13
2019-02-08T00:44:14.318Z,56.33
2019-02-08T00:46:42.728Z,41.43
2019-02-08T00:49:11.063Z,56.03
2019-02-08T00:51:39.744Z,64.80
2019-02-08T00:54:08.245Z,51.20
2019-02-08T00:56:36.561Z,53.33
2019-02-08T00:59:05.509Z,45.30
2019-02-08T01:01:33.801Z,57.17
2019-02-08T01:04:02.112Z,61.33
2019-02-08T01:06:30.601Z,68.83
2019-02-08T01:08:59.115Z,65.50
2019-02-08T01:11:27.502Z,72.00
2019-02-08T01:13:55.955Z,64.50
2019-02-08T01:16:24.330Z,73.70
2019-02-08T01:18:52.664Z,73.70
2019-02-08T01:21:21.353Z,54.60
2019-02-08T01:23:49.735Z,81.13
2019-02-08T01:26:18.041Z,50.83
2019-02-08T01:28:46.556Z,58.10
2019-02-08T01:31:14.863Z,63.50
2019-02-08T01:33:43.229Z,56.93
2019-02-08T01:36:11.722Z,60.77
2019-02-08T01:38:40.039Z,72.57
2019-02-08T01:41:08.425Z,48.90
2019-02-08T01:43:37.368Z,41.57
2019-02-08T01:46:05.747Z,54.63
2019-02-08T01:48:34.197Z,38.30
2019-02-08T01:51:02.592Z,50.17
2019-02-08T01:53:30.921Z,42.77
2019-02-08T01:55:59.271Z,53.97
2019-02-08T01:58:27.690Z,47.60
2019-02-08T02:00:56.057Z,61.27
2019-02-08T02:03:24.697Z,47.10
2019-02-08T02:05:53.379Z,61.37
2019-02-08T02:08:21.772Z,65.10
2019-02-08T02:10:50.151Z,58.50
2019-02-08T02:13:18.991Z,63.50
2019-02-08T02:15:53.960Z,62.63
2019-02-08T02:18:22.476Z,50.23
2019-02-08T02:20:50.975Z,47.00
2019-02-08T02:23:19.402Z,20.37
2019-02-08T02:25:48.080Z,60.17
2019-02-08T02:28:16.423Z,23.27
2019-02-08T02:30:44.772Z,48.67
2019-02-08T02:33:14.310Z,62.67
2019-02-08T02:35:42.977Z,58.50
2019-02-08T02:38:11.390Z,45.50
2019-02-08T02:40:40.204Z,45.63
2019-02-08T02:43:08.655Z,24.60
2019-02-08T02:45:38.199Z,34.47
2019-02-08T02:48:08.626Z,43.87
2019-02-08T02:50:36.984Z,38.23
2019-02-08T02:53:06.308Z,55.70
2019-02-08T02:55:35.062Z,50.53
2019-02-08T02:58:03.453Z,45.50
2019-02-08T03:00:37.059Z,35.83
2019-02-08T03:03:05.473Z,60.03
2019-02-08T03:05:33.859Z,46.20
2019-02-08T03:08:02.649Z,45.93
2019-02-08T03:10:31.013Z,40.03
2019-02-08T03:12:59.362Z,51.20
2019-02-08T03:15:27.921Z,35.70
2019-02-08T03:17:56.251Z,46.93
2019-02-08T03:20:24.618Z,45.63
2019-02-08T03:22:53.230Z,50.47
2019-02-08T03:25:23.237Z,51.57
2019-02-08T03:27:51.587Z,41.83
2019-02-08T03:30:23.382Z,53.20
2019-02-08T03:32:51.767Z,45.33
2019-02-08T03:35:21.628Z,66.43
2019-02-08T03:37:50.122Z,62.07
2019-02-08T03:40:21.997Z,62.23
2019-02-08T03:42:50.602Z,41.70
2019-02-08T03:45:19.376Z,45.17
2019-02-08T03:47:47.721Z,57.30
2019-02-08T03:50:16.975Z,73.53
2019-02-08T03:52:45.429Z,62.57
2019-02-08T03:55:15.306Z,56.43
2019-02-08T03:57:43.689Z,60.03
2019-02-08T04:00:15.534Z,69.10
2019-02-08T04:02:43.989Z,53.70
2019-02-08T04:05:12.346Z,60.13
2019-02-08T04:07:41.056Z,58.13
2019-02-08T04:10:11.136Z,40.23
2019-02-08T04:12:39.592Z,73.30
2019-02-08T04:15:10.362Z,60.23
2019-02-08T04:17:38.725Z,48.77
2019-02-08T04:20:07.623Z,57.80
2019-02-08T04:22:36.231Z,68.13
2019-02-08T04:25:05.125Z,55.13
2019-02-08T04:27:33.731Z,48.33
2019-02-08T04:30:02.459Z,45.83
2019-02-08T04:32:30.820Z,69.67
2019-02-08T04:34:59.143Z,62.43
2019-02-08T04:37:28.034Z,50.00
2019-02-08T04:39:56.479Z,48.27
2019-02-08T04:42:24.840Z,67.80
2019-02-08T04:44:53.277Z,59.10
2019-02-08T04:47:21.637Z,59.03
2019-02-08T04:49:49.965Z,61.83
2019-02-08T04:52:18.476Z,69.57
2019-02-08T04:54:46.930Z,59.00
2019-02-08T04:57:15.279Z,63.27
2019-02-08T04:59:43.919Z,58.50
2019-02-08T05:02:12.282Z,82.23
2019-02-08T05:04:40.606Z,73.87
2019-02-08T05:07:09.178Z,64.63
2019-02-08T05:09:37.503Z,60.37
2019-02-08T05:12:05.838Z,67.93
2019-02-08T05:14:34.313Z,56.70
2019-02-08T05:17:02.655Z,55.53
2019-02-08T05:19:30.995Z,56.37
2019-02-08T05:21:59.622Z,53.83
2019-02-08T05:24:27.946Z,47.60
2019-02-08T05:26:56.330Z,60.20
2019-02-08T05:29:24.884Z,55.13
2019-02-08T05:31:53.236Z,52.07
2019-02-08T05:34:21.629Z,40.90
2019-02-08T05:36:50.259Z,58.73
2019-02-08T05:39:18.700Z,32.53
2019-02-08T05:41:47.127Z,37.60
2019-02-08T05:44:16.070Z,36.00
2019-02-08T05:46:44.491Z,30.80
2019-02-08T05:49:12.889Z,38.10
2019-02-08T05:51:41.393Z,53.17
2019-02-08T05:54:09.720Z,39.47
2019-02-08T05:56:38.166Z,54.97
2019-02-08T05:59:06.960Z,51.80
2019-02-08T06:01:35.353Z,45.20
2019-02-08T06:04:03.754Z,45.10
2019-02-08T06:06:32.392Z,55.77
2019-02-08T06:09:00.769Z,34.13
2019-02-08T06:11:29.174Z,55.33
2019-02-08T06:13:57.849Z,46.93
2019-02-08T06:16:26.534Z,35.90
2019-02-08T06:18:54.916Z,41.37
2019-02-08T06:21:23.445Z,33.70
2019-02-08T06:23:51.838Z,38.97
2019-02-08T06:26:20.420Z,25.27
2019-02-08T06:28:49.195Z,25.43
2019-02-08T06:31:18.689Z,47.20
2019-02-08T06:33:47.168Z,43.53
2019-02-08T06:36:15.848Z,32.20
2019-02-08T06:38:44.237Z,36.57
2019-02-08T06:41:12.570Z,31.07
2019-02-08T06:43:41.432Z,38.07
2019-02-08T06:46:10.527Z,23.03
2019-02-08T06:48:38.861Z,22.53
2019-02-08T06:51:08.277Z,29.07
2019-02-08T06:53:36.735Z,28.97
2019-02-08T06:56:05.854Z,21.67
2019-02-08T06:58:43.553Z,21.13
2019-02-08T07:01:17.572Z,16.47
2019-02-08T07:04:02.258Z,25.00
2019-02-08T07:06:36.004Z,13.10
2019-02-08T07:10:17.457Z,24.90
2019-02-08T07:12:52.167Z,23.60
2019-02-08T07:15:30.046Z,17.47
2019-02-08T07:18:04.539Z,25.53
2019-02-08T07:20:39.014Z,13.23
2019-02-08T07:23:43.626Z,14.57
2019-02-08T07:28:18.989Z,11.00
2019-02-08T07:30:55.424Z,19.63
2019-02-08T07:33:29.180Z,17.10
2019-02-08T07:36:02.021Z,17.07
2019-02-08T07:38:42.734Z,19.70
2019-02-08T07:41:16.603Z,10.20
2019-02-08T07:43:58.208Z,13.63
2019-02-08T07:46:34.753Z,12.07
2019-02-08T07:49:08.434Z,9.60
2019-02-08T07:51:42.171Z,12.33
2019-02-08T07:54:16.022Z,16.30
2019-02-08T07:56:51.592Z,12.70
2019-02-08T07:59:44.274Z,16.10
2019-02-08T08:02:18.798Z,10.50
2019-02-08T08:04:53.011Z,14.07
2019-02-08T08:07:31.658Z,8.57
2019-02-08T08:10:04.511Z,12.00
2019-02-08T08:12:38.282Z,6.27
2019-02-08T08:15:28.939Z,17.10
2019-02-08T08:18:08.517Z,8.93
2019-02-08T08:21:01.321Z,11.00
2019-02-08T08:23:35.809Z,15.37
2019-02-08T08:27:14.637Z,11.00
2019-02-08T08:29:47.257Z,6.07
2019-02-08T08:32:22.062Z,7.00
2019-02-08T08:35:07.220Z,13.60
2019-02-08T08:37:52.932Z,7.37
2019-02-08T08:40:44.003Z,5.23
2019-02-08T08:45:29.415Z,10.43
2019-02-08T08:48:42.804Z,2.27
2019-02-08T08:55:30.322Z,3.10
2019-02-08T08:58:11.754Z,10.17
2019-02-08T09:03:03.869Z,5.80
2019-02-08T09:07:44.820Z,3.47
2019-02-08T09:10:24.863Z,6.53
2019-02-08T09:13:14.973Z,1.60
2019-02-08T09:16:52.241Z,4.23
2019-02-08T09:19:33.700Z,7.87
2019-02-08T09:24:16.763Z,2.57
2019-02-08T09:26:56.338Z,4.17
2019-02-08T09:29:54.036Z,1.50
2019-02-08T09:34:43.085Z,4.43
2019-02-08T09:39:24.991Z,4.57
2019-02-08T09:42:04.541Z,8.17
2019-02-08T09:44:57.024Z,6.47
2019-02-08T09:48:36.862Z,3.53
2019-02-08T09:51:26.147Z,3.33
2019-02-08T09:54:09.091Z,5.33
2019-02-08T09:56:49.509Z,3.03
2019-02-08T09:59:29.070Z,1.10
2019-02-08T10:02:09.025Z,4.43
2019-02-08T10:04:52.169Z,4.27
2019-02-08T10:07:40.040Z,1.60
2019-02-08T10:10:22.273Z,3.60
2019-02-08T10:13:08.367Z,3.50
2019-02-08T10:16:21.007Z,1.43
2019-02-08T10:21:03.464Z,4.80
2019-02-08T10:23:44.966Z,1.67
2019-02-08T10:26:23.559Z,2.80
2019-02-08T10:29:08.669Z,2.00
2019-02-08T10:33:51.303Z,2.80
2019-02-08T10:36:30.822Z,3.40
2019-02-08T10:39:11.376Z,0.97
2019-02-08T10:43:52.744Z,5.27
2019-02-08T10:48:40.027Z,2.03
2019-02-08T10:51:19.596Z,3.23
2019-02-08T10:56:03.945Z,4.07
2019-02-08T10:58:43.313Z,1.30
2019-02-08T11:03:31.525Z,2.53
2019-02-08T11:06:10.620Z,3.90
2019-02-08T11:08:50.559Z,1.97
2019-02-08T11:11:34.651Z,1.97
2019-02-08T11:14:13.266Z,4.53
2019-02-08T11:16:53.008Z,2.43
2019-02-08T11:19:21.999Z,3.27
2019-02-08T11:21:51.249Z,0.80
2019-02-08T11:24:25.378Z,2.03
2019-02-08T11:26:54.189Z,0.90
2019-02-08T11:29:22.598Z,3.87
2019-02-08T11:31:51.279Z,1.83
2019-02-08T11:34:19.659Z,3.80
2019-02-08T11:36:48.054Z,1.53
2019-02-08T11:39:18.717Z,4.37
2019-02-08T11:41:48.193Z,9.83
2019-02-08T11:44:17.238Z,1.37
2019-02-08T11:46:46.235Z,1.00
2019-02-08T11:49:14.627Z,1.77
2019-02-08T11:51:43.319Z,1.13
2019-02-08T11:54:11.884Z,1.70
2019-02-08T11:56:40.220Z,1.37
2019-02-08T11:59:08.580Z,1.67
2019-02-08T12:01:39.630Z,0.90
2019-02-08T12:04:08.100Z,1.07
2019-02-08T12:06:36.841Z,6.50
2019-02-08T12:09:09.944Z,4.40
2019-02-08T12:11:38.304Z,3.37
2019-02-08T12:14:06.657Z,1.07
2019-02-08T12:16:35.472Z,2.63
2019-02-08T12:19:03.894Z,3.03
2019-02-08T12:21:32.248Z,1.17
2019-02-08T12:24:00.971Z,0.87
2019-02-08T12:26:29.312Z,3.20
2019-02-08T12:28:57.619Z,3.90
2019-02-08T12:31:26.453Z,1.27
2019-02-08T12:33:54.863Z,0.80
2019-02-08T12:36:23.187Z,1.03
2019-02-08T12:38:51.896Z,0.80
2019-02-08T12:41:20.241Z,0.80
2019-02-08T12:43:48.654Z,3.37
2019-02-08T12:46:17.111Z,0.97
2019-02-08T12:48:45.524Z,0.80
2019-02-08T12:51:13.903Z,0.77
2019-02-08T12:53:42.336Z,1.60
2019-02-08T12:56:10.761Z,2.43
2019-02-08T12:58:39.222Z,5.07
2019-02-08T13:01:08.676Z,1.53
2019-02-08T13:03:37.177Z,1.27
2019-02-08T13:06:05.560Z,2.40
2019-02-08T13:08:34.098Z,0.73
2019-02-08T13:11:02.521Z,1.17
2019-02-08T13:13:30.816Z,0.93
2019-02-08T13:15:59.548Z,0.90
2019-02-08T13:18:27.859Z,1.60
2019-02-08T13:20:56.278Z,1.53
2019-02-08T13:23:24.988Z,2.23
2019-02-08T13:25:53.524Z,0.70
2019-02-08T13:28:21.899Z,5.47
2019-02-08T13:30:50.443Z,0.83
2019-02-08T13:33:18.862Z,1.27
2019-02-08T13:35:47.192Z,2.57
2019-02-08T13:38:15.694Z,2.73
2019-02-08T13:40:44.304Z,0.80
2019-02-08T13:43:12.780Z,0.87
2019-02-08T13:45:41.287Z,1.93
2019-02-08T13:48:09.624Z,1.27
2019-02-08T13:50:37.916Z,2.10
2019-02-08T13:53:06.598Z,1.67
2019-02-08T13:55:34.992Z,2.33
2019-02-08T13:58:03.357Z,0.87
2019-02-08T14:00:34.056Z,1.00
2019-02-08T14:03:02.486Z,0.70
2019-02-08T14:05:30.851Z,1.17
2019-02-08T14:07:59.805Z,2.53
2019-02-08T14:10:28.182Z,0.97
2019-02-08T14:12:56.570Z,1.53
2019-02-08T14:15:25.236Z,1.63
2019-02-08T14:17:53.811Z,2.37
2019-02-08T14:20:22.933Z,2.10
2019-02-08T14:22:51.607Z,1.60
2019-02-08T14:25:20.034Z,2.13
2019-02-08T14:27:48.341Z,3.63
2019-02-08T14:30:22.749Z,1.17
2019-02-08T14:32:51.088Z,0.97
2019-02-08T14:35:19.656Z,5.50
2019-02-08T14:37:48.458Z,3.83
2019-02-08T14:40:18.795Z,6.60
2019-02-08T14:42:47.204Z,6.83
2019-02-08T14:45:15.919Z,2.03
2019-02-08T14:47:44.283Z,6.47
2019-02-08T14:50:15.358Z,2.50
2019-02-08T14:52:44.092Z,2.83
2019-02-08T14:55:12.607Z,6.63
2019-02-08T14:57:40.983Z,5.53
2019-02-08T15:00:12.868Z,1.97
2019-02-08T15:02:41.447Z,2.73
2019-02-08T15:05:10.599Z,0.87
2019-02-08T15:07:39.111Z,4.20
2019-02-08T15:10:11.713Z,0.93
2019-02-08T15:12:40.334Z,2.30
2019-02-08T15:15:08.831Z,1.90
2019-02-08T15:17:37.205Z,2.80
2019-02-08T15:20:07.916Z,3.43
2019-02-08T15:22:36.218Z,3.33
2019-02-08T15:25:05.684Z,1.53
2019-02-08T15:27:34.117Z,1.87
2019-02-08T15:30:02.551Z,5.23
2019-02-08T15:32:32.192Z,1.90
2019-02-08T15:34:59.370Z,3.50
2019-02-08T15:37:27.964Z,2.27
2019-02-08T15:39:56.285Z,6.23
2019-02-08T15:42:24.793Z,3.60
2019-02-08T15:44:53.154Z,2.77
2019-02-08T15:47:21.567Z,6.60
2019-02-08T15:49:50.203Z,6.33
2019-02-08T15:52:18.546Z,6.90
2019-02-08T15:54:46.920Z,1.13
2019-02-08T15:57:15.425Z,8.47
2019-02-08T15:59:43.788Z,4.57
2019-02-08T16:02:12.178Z,3.23
2019-02-08T16:04:41.025Z,7.73
2019-02-08T16:07:09.352Z,9.03
2019-02-08T16:09:37.755Z,3.17
2019-02-08T16:12:06.394Z,2.30
2019-02-08T16:14:34.748Z,2.80
2019-02-08T16:17:03.118Z,5.93
2019-02-08T16:19:31.768Z,5.53
2019-02-08T16:22:00.111Z,4.60
2019-02-08T16:24:28.462Z,10.80
2019-02-08T16:26:57.005Z,5.77
2019-02-08T16:29:25.332Z,5.93
2019-02-08T16:31:53.641Z,7.33
2019-02-08T16:34:22.134Z,2.83
2019-02-08T16:36:50.463Z,4.23
2019-02-08T16:39:18.753Z,7.17
2019-02-08T16:41:47.458Z,3.07
2019-02-08T16:44:15.841Z,4.63
2019-02-08T16:46:44.145Z,3.83
2019-02-08T16:49:12.654Z,12.10
2019-02-08T16:51:41.048Z,7.63
2019-02-08T16:54:09.406Z,9.73
2019-02-08T16:56:38.183Z,9.73
2019-02-08T16:59:06.666Z,3.30
2019-02-08T17:01:35.021Z,6.63
2019-02-08T17:04:03.931Z,8.43
2019-02-08T17:06:32.339Z,5.83
2019-02-08T17:09:00.775Z,4.67
2019-02-08T17:11:29.534Z,1.80
2019-02-08T17:13:57.880Z,5.57
2019-02-08T17:16:26.221Z,10.47
2019-02-08T17:18:55.115Z,7.17
2019-02-08T17:21:23.462Z,7.67
2019-02-08T17:23:51.763Z,8.03
2019-02-08T17:26:20.421Z,11.00
2019-02-08T17:28:48.762Z,6.47
2019-02-08T17:31:17.123Z,10.43
2019-02-08T17:33:45.734Z,4.40
2019-02-08T17:36:14.049Z,7.77
2019-02-08T17:38:42.340Z,13.43
2019-02-08T17:41:10.983Z,7.30
2019-02-08T17:43:39.316Z,9.23
2019-02-08T17:46:07.621Z,11.90
2019-02-08T17:48:36.219Z,7.57
2019-02-08T17:51:04.611Z,8.83
2019-02-08T17:53:32.919Z,5.37
2019-02-08T17:56:01.385Z,5.23
2019-02-08T17:58:29.734Z,7.23
2019-02-08T18:00:59.329Z,10.10
2019-02-08T18:03:28.369Z,5.20
2019-02-08T18:05:56.683Z,6.47
2019-02-08T18:08:25.123Z,3.87
2019-02-08T18:10:53.997Z,4.80
2019-02-08T18:13:22.341Z,2.63
2019-02-08T18:15:50.783Z,6.43
2019-02-08T18:18:21.559Z,2.47
2019-02-08T18:20:52.619Z,7.23
2019-02-08T18:23:21.182Z,3.97
2019-02-08T18:25:49.846Z,7.27
2019-02-08T18:28:18.230Z,6.50
2019-02-08T18:30:46.539Z,8.40
2019-02-08T18:33:15.211Z,4.60
2019-02-08T18:35:43.711Z,7.50
2019-02-08T18:38:12.363Z,8.50
2019-02-08T18:40:40.979Z,10.07
2019-02-08T18:43:09.408Z,3.93
2019-02-08T18:45:37.786Z,4.70
2019-02-08T18:48:06.393Z,2.87
2019-02-08T18:50:38.095Z,4.80
2019-02-08T18:53:06.492Z,11.03
2019-02-08T18:55:35.201Z,7.23
2019-02-08T18:58:03.698Z,12.43
2019-02-08T19:00:39.761Z,6.53
2019-02-08T19:03:03.051Z,10.27
2019-02-08T19:05:31.446Z,10.23
2019-02-08T19:07:59.824Z,5.97
2019-02-08T19:10:28.313Z,7.50
2019-02-08T19:12:56.687Z,3.20
2019-02-08T19:15:25.008Z,11.60
2019-02-08T19:17:53.704Z,8.70
2019-02-08T19:20:22.994Z,8.70
2019-02-08T19:22:51.369Z,6.27
2019-02-08T19:25:22.370Z,10.47
2019-02-08T19:27:50.708Z,9.10
2019-02-08T19:30:22.079Z,6.20
2019-02-08T19:32:51.157Z,6.77
2019-02-08T19:35:19.609Z,6.10
2019-02-08T19:37:48.050Z,11.93
2019-02-08T19:40:19.304Z,5.80
2019-02-08T19:42:47.676Z,12.43
2019-02-08T19:45:16.625Z,8.07
2019-02-08T19:47:45.572Z,4.17
2019-02-08T19:50:19.223Z,6.60
2019-02-08T19:52:48.010Z,13.87
2019-02-08T19:55:16.462Z,4.90
2019-02-08T19:57:44.780Z,5.23
2019-02-08T20:00:15.449Z,5.43
2019-02-08T20:02:43.780Z,10.47
2019-02-08T20:05:14.599Z,9.37
2019-02-08T20:07:43.142Z,5.10
2019-02-08T20:10:14.046Z,9.43
2019-02-08T20:12:42.470Z,8.03
2019-02-08T20:15:13.062Z,9.00
2019-02-08T20:17:41.408Z,6.50
2019-02-08T20:20:09.797Z,3.40
2019-02-08T20:22:38.678Z,6.10
2019-02-08T20:25:10.248Z,10.37
2019-02-08T20:27:39.316Z,8.83
2019-02-08T20:30:10.695Z,6.77
2019-02-08T20:32:39.130Z,8.27
2019-02-08T20:35:09.726Z,8.13
2019-02-08T20:37:38.084Z,6.63
2019-02-08T20:40:08.340Z,5.43
2019-02-08T20:42:36.839Z,6.40
2019-02-08T20:45:06.454Z,4.43
2019-02-08T20:47:34.842Z,6.17
2019-02-08T20:50:03.418Z,9.53
2019-02-08T20:52:31.842Z,6.20
2019-02-08T20:55:00.337Z,3.77
2019-02-08T20:57:28.777Z,5.53
2019-02-08T20:59:57.194Z,4.70
2019-02-08T21:02:25.566Z,4.80
2019-02-08T21:04:54.308Z,8.47
2019-02-08T21:07:22.694Z,6.93
2019-02-08T21:09:51.065Z,9.73
2019-02-08T21:12:19.560Z,11.93
2019-02-08T21:14:48.126Z,7.60
2019-02-08T21:17:16.447Z,18.47
2019-02-08T21:19:45.240Z,9.00
2019-02-08T21:22:13.598Z,11.80
2019-02-08T21:24:41.896Z,7.27
2019-02-08T21:27:10.500Z,8.77
2019-02-08T21:29:38.828Z,2.87
2019-02-08T21:32:07.477Z,9.93
2019-02-08T21:34:35.925Z,8.03
2019-02-08T21:37:04.340Z,9.13
2019-02-08T21:39:32.683Z,4.60
2019-02-08T21:42:01.137Z,7.80
2019-02-08T21:44:29.474Z,5.07
2019-02-08T21:46:57.837Z,4.23
2019-02-08T21:49:26.739Z,20.60
2019-02-08T21:51:55.063Z,15.20
2019-02-08T21:54:23.422Z,2.87
2019-02-08T21:56:52.247Z,5.33
2019-02-08T21:59:20.545Z,6.10
2019-02-08T22:01:49.007Z,13.93
2019-02-08T22:04:17.452Z,4.53
2019-02-08T22:06:45.809Z,14.93
2019-02-08T22:09:14.231Z,9.93
2019-02-08T22:11:42.800Z,4.90
2019-02-08T22:14:11.098Z,12.53
2019-02-08T22:16:39.384Z,6.67
2019-02-08T22:19:07.806Z,20.60
2019-02-08T22:21:36.318Z,6.73
2019-02-08T22:24:04.663Z,6.37
2019-02-08T22:26:33.248Z,15.10
2019-02-08T22:29:01.646Z,7.00
2019-02-08T22:31:29.995Z,7.57
2019-02-08T22:33:58.377Z,19.17
2019-02-08T22:36:26.727Z,12.80
2019-02-08T22:38:55.060Z,21.90
2019-02-08T22:41:23.467Z,15.60
2019-02-08T22:43:51.843Z,20.93
2019-02-08T22:46:20.205Z,22.80
2019-02-08T22:48:48.929Z,10.07
2019-02-08T22:51:17.312Z,8.10
2019-02-08T22:53:45.636Z,16.83
2019-02-08T22:56:14.024Z,19.33
2019-02-08T22:58:42.726Z,11.80
2019-02-08T23:01:34.974Z,10.47
2019-02-08T23:04:05.316Z,10.17
2019-02-08T23:06:34.013Z,19.87
2019-02-08T23:09:02.499Z,22.83
2019-02-08T23:11:31.014Z,8.00
2019-02-08T23:13:59.359Z,11.93
2019-02-08T23:16:28.023Z,14.77
2019-02-08T23:18:56.396Z,25.63
2019-02-08T23:21:24.762Z,27.53
2019-02-08T23:23:53.475Z,25.10
2019-02-08T23:26:21.800Z,21.87
2019-02-08T23:28:50.108Z,20.50
2019-02-08T23:31:19.001Z,34.73
2019-02-08T23:33:47.352Z,23.00
2019-02-08T23:36:15.747Z,24.97
2019-02-08T23:38:44.332Z,21.97
2019-02-08T23:43:47.510Z,17.40
2019-02-08T23:46:15.826Z,14.60
2019-02-08T23:48:44.192Z,13.23
2019-02-08T23:51:13.085Z,20.00
2019-02-08T23:53:41.396Z,22.97
2019-02-08T23:56:09.732Z,35.50
2019-02-08T23:58:38.250Z,20.53
